sensor_id;sensor_type;location;lat;lon;timestamp;P1;durP1;ratioP1;P2;durP2;ratioP2
70367;SDS011;57789;53.868;10.728;2022-09-09T00:01:35;73.53;;;43.63;;
70367;SDS011;57789;53.868;10.728;2022-09-09T00:04:05;64.80;;;35.80;;
70367;SDS011;57789;53.868;10.728;2022-09-09T00:09:18;73.97;;;45.73;;
70367;SDS011;57789;53.868;10.728;2022-09-09T00:11:48;57.77;;;32.97;;
70367;SDS011;57789;53.868;10.728;2022-09-09T00:16:45;62.43;;;33.17;;
70367;SDS011;57789;53.868;10.728;2022-09-09T00:21:53;66.60;;;41.67;;
70367;SDS011;57789;53.868;10.728;2022-09-09T00:24:26;51.80;;;33.90;;
70367;SDS011;57789;53.868;10.728;2022-09-09T00:27:34;55.60;;;35.70;;
70367;SDS011;57789;53.868;10.728;2022-09-09T00:30:13;48.60;;;30.30;;
70367;SDS011;57789;53.868;10.728;2022-09-09T00:32:46;53.33;;;32.60;;
70367;SDS011;57789;53.868;10.728;2022-09-09T00:35:21;59.57;;;32.50;;
70367;SDS011;57789;53.868;10.728;2022-09-09T00:37:56;57.33;;;35.47;;
70367;SDS011;57789;53.868;10.728;2022-09-09T00:40:28;47.80;;;32.10;;
70367;SDS011;57789;53.868;10.728;2022-09-09T00:43:02;52.30;;;32.30;;
70367;SDS011;57789;53.868;10.728;2022-09-09T00:48:48;50.63;;;31.50;;
70367;SDS011;57789;53.868;10.728;2022-09-09T00:54:26;52.77;;;31.40;;
70367;SDS011;57789;53.868;10.728;2022-09-09T00:59:52;44.50;;;30.30;;
70367;SDS011;57789;53.868;10.728;2022-09-09T01:05:19;36.10;;;26.20;;
70367;SDS011;57789;53.868;10.728;2022-09-09T01:08:00;104.87;;;65.73;;
70367;SDS011;57789;53.868;10.728;2022-09-09T01:13:31;59.23;;;38.67;;
70367;SDS011;57789;53.868;10.728;2022-09-09T01:16:00;76.00;;;47.03;;
70367;SDS011;57789;53.868;10.728;2022-09-09T01:18:28;45.70;;;30.27;;
70367;SDS011;57789;53.868;10.728;2022-09-09T01:26:43;86.50;;;54.73;;
70367;SDS011;57789;53.868;10.728;2022-09-09T01:29:15;55.93;;;38.10;;
70367;SDS011;57789;53.868;10.728;2022-09-09T01:31:51;73.27;;;47.87;;
70367;SDS011;57789;53.868;10.728;2022-09-09T01:34:30;42.03;;;27.80;;
70367;SDS011;57789;53.868;10.728;2022-09-09T01:37:05;36.13;;;26.60;;
70367;SDS011;57789;53.868;10.728;2022-09-09T01:39:33;42.93;;;28.43;;
70367;SDS011;57789;53.868;10.728;2022-09-09T01:42:01;36.63;;;26.00;;
70367;SDS011;57789;53.868;10.728;2022-09-09T01:44:28;32.40;;;24.50;;
70367;SDS011;57789;53.868;10.728;2022-09-09T01:46:55;43.53;;;31.10;;
70367;SDS011;57789;53.868;10.728;2022-09-09T01:49:21;38.53;;;29.33;;
70367;SDS011;57789;53.868;10.728;2022-09-09T01:51:49;35.07;;;25.77;;
70367;SDS011;57789;53.868;10.728;2022-09-09T01:54:17;38.27;;;28.20;;
70367;SDS011;57789;53.868;10.728;2022-09-09T01:56:50;33.80;;;24.17;;
70367;SDS011;57789;53.868;10.728;2022-09-09T02:02:30;32.20;;;23.13;;
70367;SDS011;57789;53.868;10.728;2022-09-09T02:05:26;34.63;;;22.80;;
70367;SDS011;57789;53.868;10.728;2022-09-09T02:07:50;37.60;;;26.10;;
70367;SDS011;57789;53.868;10.728;2022-09-09T02:13:11;34.80;;;23.57;;
70367;SDS011;57789;53.868;10.728;2022-09-09T02:21:09;30.90;;;22.57;;
70367;SDS011;57789;53.868;10.728;2022-09-09T02:23:38;35.97;;;22.50;;
70367;SDS011;57789;53.868;10.728;2022-09-09T02:26:06;32.37;;;23.20;;
70367;SDS011;57789;53.868;10.728;2022-09-09T02:28:35;32.13;;;21.30;;
70367;SDS011;57789;53.868;10.728;2022-09-09T02:31:03;29.30;;;21.63;;
70367;SDS011;57789;53.868;10.728;2022-09-09T02:33:32;35.40;;;23.80;;
70367;SDS011;57789;53.868;10.728;2022-09-09T02:36:02;29.13;;;22.47;;
70367;SDS011;57789;53.868;10.728;2022-09-09T02:38:32;31.10;;;22.30;;
70367;SDS011;57789;53.868;10.728;2022-09-09T02:41:01;30.67;;;22.70;;
70367;SDS011;57789;53.868;10.728;2022-09-09T02:43:35;33.13;;;22.90;;
70367;SDS011;57789;53.868;10.728;2022-09-09T02:48:41;31.77;;;22.13;;
70367;SDS011;57789;53.868;10.728;2022-09-09T02:54:10;35.63;;;23.40;;
70367;SDS011;57789;53.868;10.728;2022-09-09T02:56:51;40.00;;;22.73;;
70367;SDS011;57789;53.868;10.728;2022-09-09T02:59:21;37.13;;;23.33;;
70367;SDS011;57789;53.868;10.728;2022-09-09T03:01:47;29.37;;;21.83;;
70367;SDS011;57789;53.868;10.728;2022-09-09T03:04:13;32.13;;;23.43;;
70367;SDS011;57789;53.868;10.728;2022-09-09T03:06:39;29.00;;;21.00;;
70367;SDS011;57789;53.868;10.728;2022-09-09T03:09:05;27.07;;;21.00;;
70367;SDS011;57789;53.868;10.728;2022-09-09T03:11:30;28.93;;;21.53;;
70367;SDS011;57789;53.868;10.728;2022-09-09T03:13:56;38.00;;;22.00;;
70367;SDS011;57789;53.868;10.728;2022-09-09T03:16:22;33.60;;;22.57;;
70367;SDS011;57789;53.868;10.728;2022-09-09T03:18:48;32.53;;;22.97;;
70367;SDS011;57789;53.868;10.728;2022-09-09T03:21:14;28.90;;;21.43;;
70367;SDS011;57789;53.868;10.728;2022-09-09T03:23:40;31.30;;;22.30;;
70367;SDS011;57789;53.868;10.728;2022-09-09T03:26:06;28.10;;;19.63;;
70367;SDS011;57789;53.868;10.728;2022-09-09T03:28:32;32.17;;;22.63;;
70367;SDS011;57789;53.868;10.728;2022-09-09T03:31:02;30.97;;;22.10;;
70367;SDS011;57789;53.868;10.728;2022-09-09T03:33:29;29.50;;;22.30;;
70367;SDS011;57789;53.868;10.728;2022-09-09T03:35:56;30.17;;;22.73;;
70367;SDS011;57789;53.868;10.728;2022-09-09T03:38:25;28.03;;;20.33;;
70367;SDS011;57789;53.868;10.728;2022-09-09T03:40:51;31.30;;;21.70;;
70367;SDS011;57789;53.868;10.728;2022-09-09T03:43:22;23.30;;;18.37;;
70367;SDS011;57789;53.868;10.728;2022-09-09T03:45:48;27.27;;;18.93;;
70367;SDS011;57789;53.868;10.728;2022-09-09T03:48:14;27.63;;;20.60;;
70367;SDS011;57789;53.868;10.728;2022-09-09T03:50:47;28.03;;;19.50;;
70367;SDS011;57789;53.868;10.728;2022-09-09T03:53:15;28.13;;;20.60;;
70367;SDS011;57789;53.868;10.728;2022-09-09T03:55:45;23.60;;;19.10;;
70367;SDS011;57789;53.868;10.728;2022-09-09T03:58:12;28.60;;;20.40;;
70367;SDS011;57789;53.868;10.728;2022-09-09T04:00:38;26.73;;;18.87;;
70367;SDS011;57789;53.868;10.728;2022-09-09T04:03:07;28.40;;;21.33;;
70367;SDS011;57789;53.868;10.728;2022-09-09T04:05:33;26.80;;;20.90;;
70367;SDS011;57789;53.868;10.728;2022-09-09T04:07:59;22.77;;;18.10;;
70367;SDS011;57789;53.868;10.728;2022-09-09T04:10:25;24.13;;;18.67;;
70367;SDS011;57789;53.868;10.728;2022-09-09T04:12:51;28.47;;;18.83;;
70367;SDS011;57789;53.868;10.728;2022-09-09T04:15:17;24.07;;;19.63;;
70367;SDS011;57789;53.868;10.728;2022-09-09T04:17:43;24.97;;;19.10;;
70367;SDS011;57789;53.868;10.728;2022-09-09T04:20:09;24.30;;;17.30;;
70367;SDS011;57789;53.868;10.728;2022-09-09T04:22:37;24.10;;;18.77;;
70367;SDS011;57789;53.868;10.728;2022-09-09T04:25:04;26.43;;;20.30;;
70367;SDS011;57789;53.868;10.728;2022-09-09T04:27:31;25.97;;;19.20;;
70367;SDS011;57789;53.868;10.728;2022-09-09T04:29:57;26.97;;;20.83;;
70367;SDS011;57789;53.868;10.728;2022-09-09T04:32:22;27.57;;;20.80;;
70367;SDS011;57789;53.868;10.728;2022-09-09T04:34:51;24.93;;;19.63;;
70367;SDS011;57789;53.868;10.728;2022-09-09T04:37:17;29.07;;;21.50;;
70367;SDS011;57789;53.868;10.728;2022-09-09T04:39:43;25.70;;;19.10;;
70367;SDS011;57789;53.868;10.728;2022-09-09T04:42:08;30.93;;;19.67;;
70367;SDS011;57789;53.868;10.728;2022-09-09T04:44:34;28.73;;;21.60;;
70367;SDS011;57789;53.868;10.728;2022-09-09T04:46:59;30.80;;;20.27;;
70367;SDS011;57789;53.868;10.728;2022-09-09T04:49:25;28.77;;;20.57;;
70367;SDS011;57789;53.868;10.728;2022-09-09T04:51:51;27.70;;;20.10;;
70367;SDS011;57789;53.868;10.728;2022-09-09T04:54:17;29.03;;;21.83;;
70367;SDS011;57789;53.868;10.728;2022-09-09T04:56:42;26.13;;;20.70;;
70367;SDS011;57789;53.868;10.728;2022-09-09T04:59:08;30.27;;;20.57;;
70367;SDS011;57789;53.868;10.728;2022-09-09T05:01:35;29.50;;;20.60;;
70367;SDS011;57789;53.868;10.728;2022-09-09T05:04:01;32.50;;;22.40;;
70367;SDS011;57789;53.868;10.728;2022-09-09T05:06:27;30.30;;;22.47;;
70367;SDS011;57789;53.868;10.728;2022-09-09T05:08:56;29.17;;;21.97;;
70367;SDS011;57789;53.868;10.728;2022-09-09T05:13:51;27.30;;;20.27;;
70367;SDS011;57789;53.868;10.728;2022-09-09T05:16:17;29.43;;;21.50;;
70367;SDS011;57789;53.868;10.728;2022-09-09T05:18:43;31.13;;;22.80;;
70367;SDS011;57789;53.868;10.728;2022-09-09T05:21:13;26.30;;;20.20;;
70367;SDS011;57789;53.868;10.728;2022-09-09T05:23:40;28.73;;;19.97;;
70367;SDS011;57789;53.868;10.728;2022-09-09T05:26:06;32.83;;;22.07;;
70367;SDS011;57789;53.868;10.728;2022-09-09T05:28:34;28.10;;;19.83;;
70367;SDS011;57789;53.868;10.728;2022-09-09T05:31:01;26.63;;;20.37;;
70367;SDS011;57789;53.868;10.728;2022-09-09T05:33:29;29.90;;;20.90;;
70367;SDS011;57789;53.868;10.728;2022-09-09T05:35:57;31.27;;;20.13;;
70367;SDS011;57789;53.868;10.728;2022-09-09T05:38:27;26.97;;;21.10;;
70367;SDS011;57789;53.868;10.728;2022-09-09T05:40:54;28.67;;;21.20;;
70367;SDS011;57789;53.868;10.728;2022-09-09T05:43:21;25.03;;;20.67;;
70367;SDS011;57789;53.868;10.728;2022-09-09T05:45:48;28.33;;;21.70;;
70367;SDS011;57789;53.868;10.728;2022-09-09T05:48:43;26.07;;;19.67;;
70367;SDS011;57789;53.868;10.728;2022-09-09T05:51:12;32.87;;;21.20;;
70367;SDS011;57789;53.868;10.728;2022-09-09T05:53:42;24.03;;;20.10;;
70367;SDS011;57789;53.868;10.728;2022-09-09T05:56:13;30.63;;;20.93;;
70367;SDS011;57789;53.868;10.728;2022-09-09T05:58:40;28.93;;;21.00;;
70367;SDS011;57789;53.868;10.728;2022-09-09T06:01:18;27.70;;;20.33;;
70367;SDS011;57789;53.868;10.728;2022-09-09T06:03:45;28.17;;;21.17;;
70367;SDS011;57789;53.868;10.728;2022-09-09T06:06:13;25.03;;;18.83;;
70367;SDS011;57789;53.868;10.728;2022-09-09T06:08:41;25.30;;;18.93;;
70367;SDS011;57789;53.868;10.728;2022-09-09T06:11:15;26.60;;;20.00;;
70367;SDS011;57789;53.868;10.728;2022-09-09T06:13:42;30.40;;;19.63;;
70367;SDS011;57789;53.868;10.728;2022-09-09T06:16:09;26.40;;;18.53;;
70367;SDS011;57789;53.868;10.728;2022-09-09T06:18:40;23.67;;;18.30;;
70367;SDS011;57789;53.868;10.728;2022-09-09T06:21:07;29.63;;;18.60;;
70367;SDS011;57789;53.868;10.728;2022-09-09T06:23:40;28.33;;;19.07;;
70367;SDS011;57789;53.868;10.728;2022-09-09T06:28:43;23.83;;;17.63;;
70367;SDS011;57789;53.868;10.728;2022-09-09T06:31:11;24.00;;;18.30;;
70367;SDS011;57789;53.868;10.728;2022-09-09T06:33:38;23.90;;;18.47;;
70367;SDS011;57789;53.868;10.728;2022-09-09T06:36:16;27.40;;;19.10;;
70367;SDS011;57789;53.868;10.728;2022-09-09T06:38:43;26.97;;;19.53;;
70367;SDS011;57789;53.868;10.728;2022-09-09T06:41:09;24.23;;;18.27;;
70367;SDS011;57789;53.868;10.728;2022-09-09T06:43:36;23.07;;;17.90;;
70367;SDS011;57789;53.868;10.728;2022-09-09T06:46:03;22.13;;;15.80;;
70367;SDS011;57789;53.868;10.728;2022-09-09T06:48:34;18.30;;;15.77;;
70367;SDS011;57789;53.868;10.728;2022-09-09T06:53:27;22.37;;;16.87;;
70367;SDS011;57789;53.868;10.728;2022-09-09T06:55:52;18.63;;;15.03;;
70367;SDS011;57789;53.868;10.728;2022-09-09T06:58:19;21.40;;;15.83;;
70367;SDS011;57789;53.868;10.728;2022-09-09T07:00:47;21.80;;;15.90;;
70367;SDS011;57789;53.868;10.728;2022-09-09T07:03:12;18.33;;;15.03;;
70367;SDS011;57789;53.868;10.728;2022-09-09T07:05:38;25.47;;;15.30;;
70367;SDS011;57789;53.868;10.728;2022-09-09T07:08:04;20.10;;;13.80;;
70367;SDS011;57789;53.868;10.728;2022-09-09T07:10:30;20.93;;;13.93;;
70367;SDS011;57789;53.868;10.728;2022-09-09T07:12:56;19.27;;;13.20;;
70367;SDS011;57789;53.868;10.728;2022-09-09T07:15:22;19.43;;;13.50;;
70367;SDS011;57789;53.868;10.728;2022-09-09T07:17:48;19.70;;;12.53;;
70367;SDS011;57789;53.868;10.728;2022-09-09T07:20:13;14.90;;;12.03;;
70367;SDS011;57789;53.868;10.728;2022-09-09T07:22:40;15.77;;;12.70;;
70367;SDS011;57789;53.868;10.728;2022-09-09T07:25:06;13.80;;;11.30;;
70367;SDS011;57789;53.868;10.728;2022-09-09T07:27:32;14.17;;;11.97;;
70367;SDS011;57789;53.868;10.728;2022-09-09T07:29:58;13.33;;;10.20;;
70367;SDS011;57789;53.868;10.728;2022-09-09T07:32:24;14.23;;;10.53;;
70367;SDS011;57789;53.868;10.728;2022-09-09T07:34:50;13.60;;;9.97;;
70367;SDS011;57789;53.868;10.728;2022-09-09T07:37:17;14.50;;;8.63;;
70367;SDS011;57789;53.868;10.728;2022-09-09T07:39:42;12.83;;;9.23;;
70367;SDS011;57789;53.868;10.728;2022-09-09T07:42:09;13.87;;;9.37;;
70367;SDS011;57789;53.868;10.728;2022-09-09T07:44:36;14.07;;;9.17;;
70367;SDS011;57789;53.868;10.728;2022-09-09T07:47:04;14.43;;;7.93;;
70367;SDS011;57789;53.868;10.728;2022-09-09T07:49:30;12.37;;;8.73;;
70367;SDS011;57789;53.868;10.728;2022-09-09T07:51:56;10.53;;;8.13;;
70367;SDS011;57789;53.868;10.728;2022-09-09T07:54:22;11.20;;;9.37;;
70367;SDS011;57789;53.868;10.728;2022-09-09T07:56:48;10.60;;;8.30;;
70367;SDS011;57789;53.868;10.728;2022-09-09T07:59:15;11.27;;;7.63;;
70367;SDS011;57789;53.868;10.728;2022-09-09T08:01:43;9.73;;;7.70;;
70367;SDS011;57789;53.868;10.728;2022-09-09T08:04:15;7.50;;;6.70;;
70367;SDS011;57789;53.868;10.728;2022-09-09T08:06:46;10.50;;;7.60;;
70367;SDS011;57789;53.868;10.728;2022-09-09T08:09:14;8.87;;;6.53;;
70367;SDS011;57789;53.868;10.728;2022-09-09T08:11:40;8.33;;;6.43;;
70367;SDS011;57789;53.868;10.728;2022-09-09T08:14:07;8.20;;;6.20;;
70367;SDS011;57789;53.868;10.728;2022-09-09T08:16:35;12.70;;;6.23;;
70367;SDS011;57789;53.868;10.728;2022-09-09T08:19:03;10.00;;;6.33;;
70367;SDS011;57789;53.868;10.728;2022-09-09T08:21:31;7.87;;;5.80;;
70367;SDS011;57789;53.868;10.728;2022-09-09T08:23:58;10.60;;;6.80;;
70367;SDS011;57789;53.868;10.728;2022-09-09T08:26:26;8.10;;;5.90;;
70367;SDS011;57789;53.868;10.728;2022-09-09T08:28:54;7.70;;;5.03;;
70367;SDS011;57789;53.868;10.728;2022-09-09T08:31:31;7.93;;;5.13;;
70367;SDS011;57789;53.868;10.728;2022-09-09T08:34:05;8.97;;;6.17;;
70367;SDS011;57789;53.868;10.728;2022-09-09T08:36:33;6.30;;;5.07;;
70367;SDS011;57789;53.868;10.728;2022-09-09T08:39:01;8.17;;;5.27;;
70367;SDS011;57789;53.868;10.728;2022-09-09T08:44:23;8.27;;;5.00;;
70367;SDS011;57789;53.868;10.728;2022-09-09T08:55:24;6.33;;;3.80;;
70367;SDS011;57789;53.868;10.728;2022-09-09T08:57:52;6.07;;;4.57;;
70367;SDS011;57789;53.868;10.728;2022-09-09T09:00:20;10.60;;;4.50;;
70367;SDS011;57789;53.868;10.728;2022-09-09T09:13:01;8.50;;;5.93;;
70367;SDS011;57789;53.868;10.728;2022-09-09T09:15:31;16.73;;;5.37;;
70367;SDS011;57789;53.868;10.728;2022-09-09T09:18:03;11.50;;;6.43;;
70367;SDS011;57789;53.868;10.728;2022-09-09T09:20:37;10.03;;;5.97;;
70367;SDS011;57789;53.868;10.728;2022-09-09T09:23:24;11.60;;;7.47;;
70367;SDS011;57789;53.868;10.728;2022-09-09T09:25:56;7.60;;;6.20;;
70367;SDS011;57789;53.868;10.728;2022-09-09T09:28:26;9.33;;;5.70;;
70367;SDS011;57789;53.868;10.728;2022-09-09T09:31:05;12.73;;;5.07;;
70367;SDS011;57789;53.868;10.728;2022-09-09T09:36:06;12.00;;;6.17;;
70367;SDS011;57789;53.868;10.728;2022-09-09T09:38:33;12.50;;;8.83;;
70367;SDS011;57789;53.868;10.728;2022-09-09T09:41:01;8.40;;;5.00;;
70367;SDS011;57789;53.868;10.728;2022-09-09T09:43:29;6.93;;;4.63;;
70367;SDS011;57789;53.868;10.728;2022-09-09T09:45:58;11.60;;;8.43;;
70367;SDS011;57789;53.868;10.728;2022-09-09T09:48:25;21.73;;;13.30;;
70367;SDS011;57789;53.868;10.728;2022-09-09T09:50:58;17.37;;;11.20;;
70367;SDS011;57789;53.868;10.728;2022-09-09T09:53:31;11.47;;;7.07;;
70367;SDS011;57789;53.868;10.728;2022-09-09T09:56:00;7.30;;;4.57;;
70367;SDS011;57789;53.868;10.728;2022-09-09T10:03:52;7.07;;;4.20;;
70367;SDS011;57789;53.868;10.728;2022-09-09T10:06:32;10.13;;;3.30;;
70367;SDS011;57789;53.868;10.728;2022-09-09T10:08:59;6.83;;;3.83;;
70367;SDS011;57789;53.868;10.728;2022-09-09T10:11:30;13.00;;;8.17;;
70367;SDS011;57789;53.868;10.728;2022-09-09T10:14:22;5.47;;;3.40;;
70367;SDS011;57789;53.868;10.728;2022-09-09T10:22:44;4.50;;;3.67;;
70367;SDS011;57789;53.868;10.728;2022-09-09T10:25:36;4.60;;;3.97;;
70367;SDS011;57789;53.868;10.728;2022-09-09T10:31:19;3.03;;;2.60;;
70367;SDS011;57789;53.868;10.728;2022-09-09T10:34:06;4.80;;;2.97;;
70367;SDS011;57789;53.868;10.728;2022-09-09T10:36:43;7.87;;;3.80;;
70367;SDS011;57789;53.868;10.728;2022-09-09T10:42:05;9.00;;;6.07;;
70367;SDS011;57789;53.868;10.728;2022-09-09T10:55:19;11.67;;;5.40;;
70367;SDS011;57789;53.868;10.728;2022-09-09T10:57:50;4.80;;;3.00;;
70367;SDS011;57789;53.868;10.728;2022-09-09T11:00:19;4.30;;;2.03;;
70367;SDS011;57789;53.868;10.728;2022-09-09T11:02:57;11.97;;;7.70;;
70367;SDS011;57789;53.868;10.728;2022-09-09T11:18:54;9.33;;;3.00;;
70367;SDS011;57789;53.868;10.728;2022-09-09T11:21:40;2.43;;;1.80;;
70367;SDS011;57789;53.868;10.728;2022-09-09T11:24:16;6.80;;;3.40;;
70367;SDS011;57789;53.868;10.728;2022-09-09T11:26:49;2.50;;;1.60;;
70367;SDS011;57789;53.868;10.728;2022-09-09T11:32:20;5.20;;;2.83;;
70367;SDS011;57789;53.868;10.728;2022-09-09T11:37:33;8.77;;;2.07;;
70367;SDS011;57789;53.868;10.728;2022-09-09T11:40:28;1.63;;;0.80;;
70367;SDS011;57789;53.868;10.728;2022-09-09T11:43:05;3.50;;;1.80;;
70367;SDS011;57789;53.868;10.728;2022-09-09T11:45:37;3.90;;;1.50;;
70367;SDS011;57789;53.868;10.728;2022-09-09T11:48:04;5.10;;;2.27;;
70367;SDS011;57789;53.868;10.728;2022-09-09T11:50:36;5.30;;;1.20;;
70367;SDS011;57789;53.868;10.728;2022-09-09T11:53:04;1.20;;;1.00;;
70367;SDS011;57789;53.868;10.728;2022-09-09T11:55:38;5.70;;;1.23;;
70367;SDS011;57789;53.868;10.728;2022-09-09T12:00:37;3.27;;;1.40;;
70367;SDS011;57789;53.868;10.728;2022-09-09T12:03:05;2.93;;;1.20;;
70367;SDS011;57789;53.868;10.728;2022-09-09T12:05:51;6.37;;;1.20;;
70367;SDS011;57789;53.868;10.728;2022-09-09T12:08:20;5.23;;;1.40;;
70367;SDS011;57789;53.868;10.728;2022-09-09T12:10:54;1.93;;;1.03;;
70367;SDS011;57789;53.868;10.728;2022-09-09T12:13:22;3.87;;;1.43;;
70367;SDS011;57789;53.868;10.728;2022-09-09T12:15:51;4.27;;;1.20;;
70367;SDS011;57789;53.868;10.728;2022-09-09T12:18:22;1.60;;;0.93;;
70367;SDS011;57789;53.868;10.728;2022-09-09T12:21:34;3.47;;;1.10;;
70367;SDS011;57789;53.868;10.728;2022-09-09T12:23:42;9.93;;;0.90;;
70367;SDS011;57789;53.868;10.728;2022-09-09T12:26:31;2.50;;;1.27;;
70367;SDS011;57789;53.868;10.728;2022-09-09T12:35:09;5.30;;;1.23;;
70367;SDS011;57789;53.868;10.728;2022-09-09T12:37:37;11.90;;;6.10;;
70367;SDS011;57789;53.868;10.728;2022-09-09T12:40:21;7.27;;;2.47;;
70367;SDS011;57789;53.868;10.728;2022-09-09T12:42:46;12.20;;;8.20;;
70367;SDS011;57789;53.868;10.728;2022-09-09T12:45:22;5.63;;;3.10;;
70367;SDS011;57789;53.868;10.728;2022-09-09T12:53:03;3.83;;;3.00;;
70367;SDS011;57789;53.868;10.728;2022-09-09T12:55:35;2.57;;;1.30;;
70367;SDS011;57789;53.868;10.728;2022-09-09T12:58:04;4.03;;;2.40;;
70367;SDS011;57789;53.868;10.728;2022-09-09T13:00:31;3.73;;;2.70;;
70367;SDS011;57789;53.868;10.728;2022-09-09T13:03:02;2.87;;;1.63;;
70367;SDS011;57789;53.868;10.728;2022-09-09T13:05:39;6.70;;;4.10;;
70367;SDS011;57789;53.868;10.728;2022-09-09T13:08:06;10.80;;;4.80;;
70367;SDS011;57789;53.868;10.728;2022-09-09T13:10:57;5.37;;;2.63;;
70367;SDS011;57789;53.868;10.728;2022-09-09T13:16:05;5.13;;;3.17;;
70367;SDS011;57789;53.868;10.728;2022-09-09T13:18:40;6.13;;;4.00;;
70367;SDS011;57789;53.868;10.728;2022-09-09T13:21:07;3.57;;;2.30;;
70367;SDS011;57789;53.868;10.728;2022-09-09T13:23:33;3.23;;;2.40;;
70367;SDS011;57789;53.868;10.728;2022-09-09T13:26:02;4.77;;;2.47;;
70367;SDS011;57789;53.868;10.728;2022-09-09T13:28:46;3.70;;;1.40;;
70367;SDS011;57789;53.868;10.728;2022-09-09T13:31:28;2.50;;;1.10;;
70367;SDS011;57789;53.868;10.728;2022-09-09T13:33:56;4.00;;;1.67;;
70367;SDS011;57789;53.868;10.728;2022-09-09T13:36:32;1.57;;;1.00;;
70367;SDS011;57789;53.868;10.728;2022-09-09T13:39:00;2.50;;;2.10;;
70367;SDS011;57789;53.868;10.728;2022-09-09T13:41:42;8.03;;;3.50;;
70367;SDS011;57789;53.868;10.728;2022-09-09T13:44:26;10.70;;;9.00;;
70367;SDS011;57789;53.868;10.728;2022-09-09T13:49:37;1.83;;;1.10;;
70367;SDS011;57789;53.868;10.728;2022-09-09T13:52:09;6.00;;;4.93;;
70367;SDS011;57789;53.868;10.728;2022-09-09T13:54:36;6.40;;;2.03;;
70367;SDS011;57789;53.868;10.728;2022-09-09T13:57:02;10.13;;;7.50;;
70367;SDS011;57789;53.868;10.728;2022-09-09T13:59:29;3.70;;;2.33;;
70367;SDS011;57789;53.868;10.728;2022-09-09T14:01:55;5.63;;;3.87;;
70367;SDS011;57789;53.868;10.728;2022-09-09T14:04:21;3.50;;;1.60;;
70367;SDS011;57789;53.868;10.728;2022-09-09T14:06:47;2.20;;;1.63;;
70367;SDS011;57789;53.868;10.728;2022-09-09T14:09:14;36.77;;;27.23;;
70367;SDS011;57789;53.868;10.728;2022-09-09T14:11:42;9.87;;;7.50;;
70367;SDS011;57789;53.868;10.728;2022-09-09T14:14:08;4.33;;;2.20;;
70367;SDS011;57789;53.868;10.728;2022-09-09T14:16:34;3.90;;;1.90;;
70367;SDS011;57789;53.868;10.728;2022-09-09T14:19:00;35.17;;;25.57;;
70367;SDS011;57789;53.868;10.728;2022-09-09T14:21:27;2.33;;;1.70;;
70367;SDS011;57789;53.868;10.728;2022-09-09T14:23:52;6.50;;;3.53;;
70367;SDS011;57789;53.868;10.728;2022-09-09T14:26:19;6.77;;;5.80;;
70367;SDS011;57789;53.868;10.728;2022-09-09T14:28:46;6.67;;;3.90;;
70367;SDS011;57789;53.868;10.728;2022-09-09T14:31:12;4.57;;;1.63;;
70367;SDS011;57789;53.868;10.728;2022-09-09T14:33:38;3.27;;;2.07;;
70367;SDS011;57789;53.868;10.728;2022-09-09T14:36:05;3.40;;;1.53;;
70367;SDS011;57789;53.868;10.728;2022-09-09T14:38:32;7.70;;;4.30;;
70367;SDS011;57789;53.868;10.728;2022-09-09T14:41:04;8.00;;;4.37;;
70367;SDS011;57789;53.868;10.728;2022-09-09T14:43:39;16.13;;;9.33;;
70367;SDS011;57789;53.868;10.728;2022-09-09T14:46:06;6.20;;;5.13;;
70367;SDS011;57789;53.868;10.728;2022-09-09T14:48:42;11.73;;;4.20;;
70367;SDS011;57789;53.868;10.728;2022-09-09T14:51:13;8.03;;;4.83;;
70367;SDS011;57789;53.868;10.728;2022-09-09T14:53:41;8.07;;;2.90;;
70367;SDS011;57789;53.868;10.728;2022-09-09T14:56:17;7.03;;;3.63;;
70367;SDS011;57789;53.868;10.728;2022-09-09T14:58:46;4.67;;;2.60;;
70367;SDS011;57789;53.868;10.728;2022-09-09T15:01:13;5.90;;;2.53;;
70367;SDS011;57789;53.868;10.728;2022-09-09T15:03:41;4.70;;;2.63;;
70367;SDS011;57789;53.868;10.728;2022-09-09T15:06:11;56.83;;;36.77;;
70367;SDS011;57789;53.868;10.728;2022-09-09T15:08:39;12.10;;;8.20;;
70367;SDS011;57789;53.868;10.728;2022-09-09T15:11:07;9.30;;;6.17;;
70367;SDS011;57789;53.868;10.728;2022-09-09T15:13:33;4.57;;;2.87;;
70367;SDS011;57789;53.868;10.728;2022-09-09T15:16:03;10.27;;;4.10;;
70367;SDS011;57789;53.868;10.728;2022-09-09T15:18:33;9.70;;;6.00;;
70367;SDS011;57789;53.868;10.728;2022-09-09T15:21:00;4.20;;;2.50;;
70367;SDS011;57789;53.868;10.728;2022-09-09T15:23:28;4.23;;;2.00;;
70367;SDS011;57789;53.868;10.728;2022-09-09T15:25:56;6.80;;;2.80;;
70367;SDS011;57789;53.868;10.728;2022-09-09T15:28:21;2.70;;;1.50;;
70367;SDS011;57789;53.868;10.728;2022-09-09T15:30:51;1.77;;;1.20;;
70367;SDS011;57789;53.868;10.728;2022-09-09T15:33:18;4.07;;;1.70;;
70367;SDS011;57789;53.868;10.728;2022-09-09T15:35:44;4.90;;;1.43;;
70367;SDS011;57789;53.868;10.728;2022-09-09T15:38:10;2.83;;;1.10;;
70367;SDS011;57789;53.868;10.728;2022-09-09T15:40:38;8.53;;;5.43;;
70367;SDS011;57789;53.868;10.728;2022-09-09T15:43:04;109.70;;;76.67;;
70367;SDS011;57789;53.868;10.728;2022-09-09T15:45:31;42.17;;;29.60;;
70367;SDS011;57789;53.868;10.728;2022-09-09T15:47:58;29.53;;;23.07;;
70367;SDS011;57789;53.868;10.728;2022-09-09T15:50:25;10.30;;;6.43;;
70367;SDS011;57789;53.868;10.728;2022-09-09T15:52:51;13.50;;;9.90;;
70367;SDS011;57789;53.868;10.728;2022-09-09T15:55:18;5.80;;;3.30;;
70367;SDS011;57789;53.868;10.728;2022-09-09T15:57:45;6.33;;;3.70;;
70367;SDS011;57789;53.868;10.728;2022-09-09T16:00:11;6.20;;;1.40;;
70367;SDS011;57789;53.868;10.728;2022-09-09T16:02:38;4.47;;;3.10;;
70367;SDS011;57789;53.868;10.728;2022-09-09T16:05:04;8.30;;;2.30;;
70367;SDS011;57789;53.868;10.728;2022-09-09T16:07:31;18.20;;;11.73;;
70367;SDS011;57789;53.868;10.728;2022-09-09T16:09:56;6.40;;;2.67;;
70367;SDS011;57789;53.868;10.728;2022-09-09T16:12:22;42.03;;;29.83;;
70367;SDS011;57789;53.868;10.728;2022-09-09T16:14:48;20.03;;;10.37;;
70367;SDS011;57789;53.868;10.728;2022-09-09T16:17:13;10.10;;;7.30;;
70367;SDS011;57789;53.868;10.728;2022-09-09T16:19:40;5.23;;;3.33;;
70367;SDS011;57789;53.868;10.728;2022-09-09T16:22:06;6.87;;;2.10;;
70367;SDS011;57789;53.868;10.728;2022-09-09T16:24:32;6.60;;;2.20;;
70367;SDS011;57789;53.868;10.728;2022-09-09T16:26:58;4.70;;;2.63;;
70367;SDS011;57789;53.868;10.728;2022-09-09T16:29:24;3.97;;;1.77;;
70367;SDS011;57789;53.868;10.728;2022-09-09T16:31:52;3.37;;;2.10;;
70367;SDS011;57789;53.868;10.728;2022-09-09T16:34:19;3.07;;;1.87;;
70367;SDS011;57789;53.868;10.728;2022-09-09T16:36:45;223.33;;;146.80;;
70367;SDS011;57789;53.868;10.728;2022-09-09T16:39:13;100.67;;;68.03;;
70367;SDS011;57789;53.868;10.728;2022-09-09T16:41:41;34.83;;;24.47;;
70367;SDS011;57789;53.868;10.728;2022-09-09T16:44:09;12.33;;;6.17;;
70367;SDS011;57789;53.868;10.728;2022-09-09T16:46:36;15.57;;;9.17;;
70367;SDS011;57789;53.868;10.728;2022-09-09T16:49:05;89.97;;;65.83;;
70367;SDS011;57789;53.868;10.728;2022-09-09T16:51:33;48.20;;;33.00;;
70367;SDS011;57789;53.868;10.728;2022-09-09T16:54:01;16.93;;;10.30;;
70367;SDS011;57789;53.868;10.728;2022-09-09T16:56:31;24.20;;;16.53;;